Ana Sayfa
METAR-TAF:

METAR-TAF

Havaalanları :

Kalispell Glacier Park, Montana, Amerika Birleşik Devletleri

Enlem: 48-18-15N, Boylam: 114-15-49W, yükseklik: 906 m

Güncel hava durumu gözlemi

Rapor saat 20:55 UTC de 36 dakika önce yapıldı.
Rüzgar güneybatıdan 17 kt ve 30 kt'a kadar ani rüzgarlar
Sıcaklık 12°C
Nem 26%
Basınç 1018 hPa
Görüş mesafesi: 16.1 km
Açık gökyüzü

METAR: KGPI 212055Z 23017G30KT 10SM CLR 12/M07 A3007 RMK AO2 PK WND 21030/2053 SLP196 T01171067 51002

Saat: 15:31 (21:31 UTC)

Tahmin

Rapor saat 17:20 UTC de 4 saat ve 11 dakika önce yapıldı.
Ayın 21'si saat 18 UTC'den ayın 22'si saat 18 UTC'ye kadar geçerli Tahmin
Rüzgar batı/güneybatıdan 18 kt ve 27 kt'a kadar ani rüzgarlar
Görüş mesafesi: 10 km
10000 ft yükseklikte parçalı çok bulutlu
Ayın 22'si saat 0200 UTC'den
Rüzgar güneydan 8 kt
Görüş mesafesi: 10 km
10000 ft yükseklikte parçalı çok bulutlu

TAF: KGPI 211720Z 2118/2218 24018G27KT P6SM BKN100 FM220200 19008KT P6SM BKN100

4.000'den fazla havaalanı için hava durumu gözlemleri ve tahminleri (METAR ve TAF raporları).

Kullanılabilir istasyonlar harita üzerinde sarı ve kırmızı noktalarla gösterilir.

İstasyonun adını görmek için fareyi noktanın üzerinde gezdirin.

Sonrasında hava gözlem ve tahminlerini görmek için tıklayın.

Haritayı değiştirmek için: yaklaştırmak için siyah artı işaretli yeşil düğmeye ve uzaklaştırmak için de eksi işaretli düğmeye hızla tıklayın; bitişik haritalar için yeşil okları kullanın.


METAR-TAF: